DLH12A EDDM-EDDK
Flight info
| Callsign | DLH12A |
|---|---|
| Flight time | 0h 41m |
| Altitude | 24000 |
| Route | GIVMI6S GIVMI Y101 ERNAS T161 GOLMO DCT AKANU L603 RATIM DCT ASKIK T840 GULKO |
| Aircraft | A20N/M-SDE2E3FGHIRWXY/LB1 |
Departure
| Time | 2026-05-06 19:27 |
|---|---|
| Airport | Munich Airport (EDDM) |
Arrival
| Time | 2026-05-06 20:09 |
|---|---|
| Airport | Cologne Bonn Airport (EDDK) |
| Time | Latitude | Longitude | Altitude | Speed | Heading |
|---|---|---|---|---|---|
| 2026-05-06 19:07 | 48.35619 | 11.79711 | 1485 ft | 0 kts | 83° |
| 2026-05-06 19:11 | 48.35617 | 11.79691 | 1479 ft | 4 kts | 83° |
| 2026-05-06 19:11 | 48.35614 | 11.79651 | 1473 ft | 3 kts | 83° |
| 2026-05-06 19:11 | 48.35612 | 11.79618 | 1477 ft | 3 kts | 79° |
| 2026-05-06 19:11 | 48.35603 | 11.79583 | 1483 ft | 3 kts | 41° |
| 2026-05-06 19:12 | 48.35580 | 11.79568 | 1478 ft | 3 kts | 354° |
| 2026-05-06 19:12 | 48.35560 | 11.79571 | 1475 ft | 0 kts | 353° |
| 2026-05-06 19:19 | 48.35564 | 11.79571 | 1474 ft | 4 kts | 353° |
| 2026-05-06 19:19 | 48.35634 | 11.79558 | 1485 ft | 14 kts | 353° |
| 2026-05-06 19:19 | 48.35733 | 11.79539 | 1475 ft | 15 kts | 353° |
| 2026-05-06 19:20 | 48.35851 | 11.79520 | 1476 ft | 17 kts | 353° |
| 2026-05-06 19:20 | 48.35966 | 11.79499 | 1480 ft | 15 kts | 356° |
| 2026-05-06 19:20 | 48.36004 | 11.79494 | 1478 ft | 3 kts | 354° |
| 2026-05-06 19:20 | 48.36040 | 11.79489 | 1482 ft | 3 kts | 354° |
| 2026-05-06 19:21 | 48.36043 | 11.79488 | 1482 ft | 0 kts | 354° |
| 2026-05-06 19:21 | 48.36065 | 11.79484 | 1478 ft | 6 kts | 353° |
| 2026-05-06 19:22 | 48.36130 | 11.79471 | 1479 ft | 12 kts | 352° |
| 2026-05-06 19:22 | 48.36207 | 11.79507 | 1477 ft | 12 kts | 59° |
| 2026-05-06 19:22 | 48.36228 | 11.79656 | 1485 ft | 17 kts | 84° |
| 2026-05-06 19:22 | 48.36245 | 11.79867 | 1485 ft | 22 kts | 84° |
| 2026-05-06 19:23 | 48.36261 | 11.80112 | 1485 ft | 26 kts | 85° |
| 2026-05-06 19:23 | 48.36282 | 11.80386 | 1476 ft | 28 kts | 82° |
| 2026-05-06 19:23 | 48.36305 | 11.80666 | 1485 ft | 24 kts | 82° |
| 2026-05-06 19:23 | 48.36328 | 11.80924 | 1485 ft | 24 kts | 82° |
| 2026-05-06 19:24 | 48.36346 | 11.81202 | 1485 ft | 29 kts | 85° |
| 2026-05-06 19:24 | 48.36368 | 11.81492 | 1478 ft | 25 kts | 83° |
| 2026-05-06 19:24 | 48.36388 | 11.81733 | 1482 ft | 24 kts | 83° |
| 2026-05-06 19:24 | 48.36398 | 11.81932 | 1485 ft | 19 kts | 83° |
| 2026-05-06 19:25 | 48.36497 | 11.81993 | 1482 ft | 17 kts | 353° |
| 2026-05-06 19:25 | 48.36556 | 11.81982 | 1482 ft | 0 kts | 353° |
| 2026-05-06 19:26 | 48.36583 | 11.81978 | 1480 ft | 9 kts | 353° |
| 2026-05-06 19:26 | 48.36667 | 11.81910 | 1473 ft | 14 kts | 297° |
| 2026-05-06 19:26 | 48.36667 | 11.81884 | 1473 ft | 0 kts | 259° |
| 2026-05-06 19:26 | 48.36655 | 11.81756 | 1485 ft | 35 kts | 262° |
| 2026-05-06 19:27 | 48.36600 | 11.80977 | 1476 ft | 112 kts | 263° |
| 2026-05-06 19:27 | 48.36503 | 11.79567 | 1749 ft | 143 kts | 264° |
| 2026-05-06 19:27 | 48.36386 | 11.78105 | 2678 ft | 135 kts | 264° |
| 2026-05-06 19:27 | 48.36272 | 11.76761 | 3545 ft | 132 kts | 265° |
| 2026-05-06 19:28 | 48.36159 | 11.75281 | 4172 ft | 154 kts | 265° |
| 2026-05-06 19:28 | 48.36034 | 11.73548 | 4767 ft | 181 kts | 265° |
| 2026-05-06 19:28 | 48.35890 | 11.71512 | 5387 ft | 209 kts | 265° |
| 2026-05-06 19:28 | 48.35778 | 11.69308 | 6667 ft | 213 kts | 272° |
| 2026-05-06 19:29 | 48.36091 | 11.67104 | 7964 ft | 222 kts | 289° |
| 2026-05-06 19:29 | 48.36865 | 11.65041 | 9091 ft | 238 kts | 297° |
| 2026-05-06 19:29 | 48.38052 | 11.63109 | 10011 ft | 271 kts | 319° |
| 2026-05-06 19:29 | 48.39735 | 11.61528 | 10764 ft | 298 kts | 323° |
| 2026-05-06 19:30 | 48.41414 | 11.59549 | 11433 ft | 318 kts | 313° |
| 2026-05-06 19:30 | 48.43054 | 11.57141 | 12083 ft | 338 kts | 310° |
| 2026-05-06 19:30 | 48.44718 | 11.54603 | 12735 ft | 344 kts | 310° |
| 2026-05-06 19:30 | 48.46420 | 11.52043 | 13434 ft | 350 kts | 311° |
| 2026-05-06 19:31 | 48.48171 | 11.49453 | 14368 ft | 355 kts | 312° |
| 2026-05-06 19:31 | 48.49961 | 11.46837 | 15008 ft | 362 kts | 312° |
| 2026-05-06 19:31 | 48.53611 | 11.41539 | 16111 ft | 372 kts | 313° |
| 2026-05-06 19:32 | 48.55487 | 11.38819 | 16684 ft | 377 kts | 313° |
| 2026-05-06 19:32 | 48.57389 | 11.36056 | 17267 ft | 382 kts | 313° |
| 2026-05-06 19:32 | 48.59315 | 11.33255 | 17859 ft | 387 kts | 313° |
| 2026-05-06 19:32 | 48.61268 | 11.30411 | 18418 ft | 392 kts | 314° |
| 2026-05-06 19:33 | 48.63235 | 11.27546 | 18936 ft | 394 kts | 314° |
| 2026-05-06 19:33 | 48.65222 | 11.24651 | 19477 ft | 398 kts | 314° |
| 2026-05-06 19:33 | 48.67228 | 11.21723 | 20018 ft | 402 kts | 313° |
| 2026-05-06 19:33 | 48.69240 | 11.18783 | 20568 ft | 406 kts | 313° |
| 2026-05-06 19:34 | 48.71279 | 11.15800 | 21130 ft | 410 kts | 313° |
| 2026-05-06 19:34 | 48.73312 | 11.12821 | 21640 ft | 414 kts | 313° |
| 2026-05-06 19:34 | 48.75390 | 11.09774 | 21827 ft | 417 kts | 314° |
| 2026-05-06 19:34 | 48.77478 | 11.06710 | 21858 ft | 417 kts | 313° |
| 2026-05-06 19:35 | 48.79559 | 11.03653 | 21859 ft | 417 kts | 313° |
| 2026-05-06 19:35 | 48.81646 | 11.00582 | 21859 ft | 417 kts | 313° |
| 2026-05-06 19:35 | 48.83726 | 10.97518 | 21866 ft | 417 kts | 313° |
| 2026-05-06 19:35 | 48.85818 | 10.94429 | 22124 ft | 423 kts | 313° |
| 2026-05-06 19:36 | 48.87932 | 10.91305 | 23039 ft | 426 kts | 313° |
| 2026-05-06 19:36 | 48.90072 | 10.88139 | 23619 ft | 432 kts | 313° |
| 2026-05-06 19:36 | 48.92227 | 10.84948 | 23812 ft | 433 kts | 313° |
| 2026-05-06 19:36 | 48.94389 | 10.81744 | 23876 ft | 434 kts | 313° |
| 2026-05-06 19:37 | 48.96521 | 10.78580 | 23879 ft | 435 kts | 313° |
| 2026-05-06 19:37 | 48.98682 | 10.75367 | 23884 ft | 434 kts | 313° |
| 2026-05-06 19:37 | 49.00844 | 10.72150 | 23884 ft | 434 kts | 313° |
| 2026-05-06 19:37 | 49.02274 | 10.70019 | 23883 ft | 434 kts | 313° |
| 2026-05-06 19:38 | 49.05164 | 10.65709 | 23884 ft | 435 kts | 313° |
| 2026-05-06 19:38 | 49.07329 | 10.62492 | 23885 ft | 435 kts | 313° |
| 2026-05-06 19:38 | 49.09503 | 10.59277 | 23884 ft | 435 kts | 313° |
| 2026-05-06 19:38 | 49.11678 | 10.56061 | 23887 ft | 435 kts | 313° |
| 2026-05-06 19:39 | 49.13845 | 10.52851 | 23880 ft | 435 kts | 313° |
| 2026-05-06 19:39 | 49.15985 | 10.49676 | 23882 ft | 434 kts | 313° |
| 2026-05-06 19:39 | 49.18147 | 10.46463 | 23879 ft | 434 kts | 313° |
| 2026-05-06 19:39 | 49.20316 | 10.43236 | 23873 ft | 434 kts | 313° |
| 2026-05-06 19:40 | 49.22480 | 10.40011 | 23868 ft | 434 kts | 312° |
| 2026-05-06 19:40 | 49.24529 | 10.36635 | 23854 ft | 431 kts | 306° |
| 2026-05-06 19:40 | 49.26417 | 10.33076 | 23856 ft | 430 kts | 306° |
| 2026-05-06 19:40 | 49.28310 | 10.29533 | 23846 ft | 430 kts | 306° |
| 2026-05-06 19:41 | 49.30205 | 10.25991 | 23840 ft | 430 kts | 306° |
| 2026-05-06 19:41 | 49.32096 | 10.22453 | 23830 ft | 429 kts | 306° |
| 2026-05-06 19:41 | 49.33985 | 10.18911 | 23832 ft | 429 kts | 306° |
| 2026-05-06 19:41 | 49.35845 | 10.15417 | 23830 ft | 429 kts | 306° |
| 2026-05-06 19:42 | 49.37731 | 10.11868 | 23830 ft | 429 kts | 306° |
| 2026-05-06 19:42 | 49.39612 | 10.08324 | 23825 ft | 428 kts | 306° |
| 2026-05-06 19:42 | 49.41491 | 10.04776 | 23827 ft | 428 kts | 306° |
| 2026-05-06 19:42 | 49.43363 | 10.01237 | 23837 ft | 427 kts | 306° |
| 2026-05-06 19:43 | 49.45236 | 9.97690 | 23824 ft | 427 kts | 306° |
| 2026-05-06 19:43 | 49.47104 | 9.94151 | 23827 ft | 426 kts | 306° |
| 2026-05-06 19:43 | 49.48971 | 9.90606 | 23831 ft | 426 kts | 306° |
| 2026-05-06 19:43 | 49.50831 | 9.87072 | 23832 ft | 425 kts | 306° |
| 2026-05-06 19:44 | 49.52665 | 9.83582 | 23824 ft | 425 kts | 306° |
| 2026-05-06 19:44 | 49.54519 | 9.80049 | 23829 ft | 424 kts | 306° |
| 2026-05-06 19:44 | 49.56346 | 9.76562 | 23821 ft | 424 kts | 306° |
| 2026-05-06 19:44 | 49.58218 | 9.72985 | 23818 ft | 423 kts | 306° |
| 2026-05-06 19:45 | 49.60061 | 9.69459 | 23817 ft | 422 kts | 306° |
| 2026-05-06 19:45 | 49.61899 | 9.65938 | 23813 ft | 421 kts | 306° |
| 2026-05-06 19:45 | 49.63729 | 9.62428 | 23811 ft | 421 kts | 306° |
| 2026-05-06 19:45 | 49.65563 | 9.58905 | 23809 ft | 420 kts | 306° |
| 2026-05-06 19:46 | 49.67365 | 9.55440 | 23808 ft | 420 kts | 307° |
| 2026-05-06 19:46 | 49.69152 | 9.51875 | 23811 ft | 418 kts | 302° |
| 2026-05-06 19:46 | 49.70666 | 9.48054 | 23811 ft | 417 kts | 297° |
| 2026-05-06 19:46 | 49.72096 | 9.44167 | 23812 ft | 416 kts | 297° |
| 2026-05-06 19:47 | 49.73539 | 9.40286 | 23813 ft | 417 kts | 297° |
| 2026-05-06 19:47 | 49.74984 | 9.36404 | 23817 ft | 416 kts | 298° |
| 2026-05-06 19:47 | 49.76426 | 9.32520 | 23815 ft | 416 kts | 297° |
| 2026-05-06 19:47 | 49.77862 | 9.28642 | 23820 ft | 415 kts | 297° |
| 2026-05-06 19:48 | 49.79297 | 9.24758 | 23824 ft | 416 kts | 297° |
| 2026-05-06 19:48 | 49.80732 | 9.20866 | 23822 ft | 416 kts | 297° |
| 2026-05-06 19:48 | 49.82144 | 9.17031 | 23820 ft | 415 kts | 297° |
| 2026-05-06 19:48 | 49.83573 | 9.13144 | 23826 ft | 415 kts | 297° |
| 2026-05-06 19:49 | 49.84997 | 9.09263 | 23826 ft | 415 kts | 297° |
| 2026-05-06 19:49 | 49.86422 | 9.05375 | 23822 ft | 415 kts | 297° |
| 2026-05-06 19:49 | 49.87842 | 9.01493 | 23830 ft | 414 kts | 297° |
| 2026-05-06 19:49 | 49.89263 | 8.97604 | 23833 ft | 415 kts | 297° |
| 2026-05-06 19:50 | 49.90683 | 8.93710 | 23839 ft | 415 kts | 297° |
| 2026-05-06 19:50 | 49.92103 | 8.89814 | 23845 ft | 414 kts | 297° |
| 2026-05-06 19:50 | 49.93515 | 8.85930 | 23845 ft | 414 kts | 297° |
| 2026-05-06 19:50 | 49.94917 | 8.82073 | 23847 ft | 414 kts | 297° |
| 2026-05-06 19:51 | 49.96327 | 8.78184 | 23850 ft | 414 kts | 297° |
| 2026-05-06 19:51 | 49.97744 | 8.74271 | 23854 ft | 415 kts | 297° |
| 2026-05-06 19:51 | 49.99153 | 8.70376 | 23858 ft | 415 kts | 297° |
| 2026-05-06 19:51 | 50.00511 | 8.66615 | 23855 ft | 415 kts | 297° |
| 2026-05-06 19:52 | 50.01576 | 8.63661 | 23856 ft | 415 kts | 297° |
| 2026-05-06 19:52 | 50.02984 | 8.59752 | 23819 ft | 415 kts | 297° |
| 2026-05-06 19:52 | 50.04150 | 8.56829 | 23651 ft | 415 kts | 306° |
| 2026-05-06 19:52 | 50.06030 | 8.53803 | 23434 ft | 414 kts | 320° |
| 2026-05-06 19:53 | 50.08482 | 8.51498 | 23158 ft | 413 kts | 336° |
| 2026-05-06 19:53 | 50.11182 | 8.49987 | 22881 ft | 411 kts | 341° |
| 2026-05-06 19:53 | 50.13803 | 8.48648 | 22609 ft | 409 kts | 341° |
| 2026-05-06 19:53 | 50.16502 | 8.47266 | 22353 ft | 407 kts | 341° |
| 2026-05-06 19:54 | 50.19136 | 8.45889 | 22083 ft | 404 kts | 340° |
| 2026-05-06 19:54 | 50.21798 | 8.44471 | 21741 ft | 403 kts | 340° |
| 2026-05-06 19:54 | 50.24431 | 8.43054 | 21343 ft | 399 kts | 340° |
| 2026-05-06 19:54 | 50.27040 | 8.41640 | 20956 ft | 395 kts | 339° |
| 2026-05-06 19:55 | 50.29545 | 8.39942 | 20571 ft | 391 kts | 331° |
| 2026-05-06 19:55 | 50.31865 | 8.37769 | 20196 ft | 387 kts | 326° |
| 2026-05-06 19:55 | 50.34128 | 8.35494 | 19821 ft | 385 kts | 326° |
| 2026-05-06 19:55 | 50.36379 | 8.33255 | 19442 ft | 383 kts | 326° |
| 2026-05-06 19:56 | 50.38615 | 8.31034 | 19033 ft | 380 kts | 326° |
| 2026-05-06 19:56 | 50.40829 | 8.28830 | 18504 ft | 376 kts | 326° |
| 2026-05-06 19:56 | 50.43012 | 8.26650 | 17770 ft | 375 kts | 325° |
| 2026-05-06 19:56 | 50.45196 | 8.24466 | 17152 ft | 368 kts | 325° |
| 2026-05-06 19:57 | 50.47334 | 8.22322 | 16540 ft | 362 kts | 324° |
| 2026-05-06 19:57 | 50.49238 | 8.19768 | 15578 ft | 362 kts | 307° |
| 2026-05-06 19:57 | 50.50482 | 8.16426 | 14817 ft | 348 kts | 291° |
| 2026-05-06 19:57 | 50.51339 | 8.12906 | 14284 ft | 348 kts | 288° |
| 2026-05-06 19:58 | 50.52160 | 8.09311 | 13762 ft | 348 kts | 288° |
| 2026-05-06 19:58 | 50.52991 | 8.05818 | 13178 ft | 337 kts | 289° |
| 2026-05-06 19:58 | 50.53850 | 8.02367 | 12601 ft | 340 kts | 290° |
| 2026-05-06 19:58 | 50.54729 | 7.98938 | 12032 ft | 336 kts | 291° |
| 2026-05-06 19:59 | 50.55611 | 7.95550 | 11504 ft | 335 kts | 291° |
| 2026-05-06 19:59 | 50.56494 | 7.92173 | 11053 ft | 330 kts | 291° |
| 2026-05-06 19:59 | 50.57350 | 7.88898 | 10893 ft | 330 kts | 291° |
| 2026-05-06 19:59 | 50.58224 | 7.85546 | 10862 ft | 331 kts | 291° |
| 2026-05-06 20:00 | 50.59095 | 7.82201 | 10858 ft | 330 kts | 291° |
| 2026-05-06 20:00 | 50.59960 | 7.78870 | 10612 ft | 329 kts | 292° |
| 2026-05-06 20:00 | 50.60826 | 7.75526 | 9981 ft | 330 kts | 292° |
| 2026-05-06 20:00 | 50.61662 | 7.72291 | 9702 ft | 308 kts | 292° |
| 2026-05-06 20:01 | 50.62438 | 7.69288 | 9397 ft | 287 kts | 293° |
| 2026-05-06 20:01 | 50.63183 | 7.66404 | 8763 ft | 281 kts | 293° |
| 2026-05-06 20:01 | 50.63905 | 7.63608 | 8109 ft | 278 kts | 293° |
| 2026-05-06 20:01 | 50.64631 | 7.60798 | 7419 ft | 276 kts | 293° |
| 2026-05-06 20:02 | 50.65336 | 7.58063 | 7028 ft | 264 kts | 293° |
| 2026-05-06 20:02 | 50.66036 | 7.55347 | 6913 ft | 273 kts | 293° |
| 2026-05-06 20:02 | 50.66741 | 7.52606 | 6869 ft | 268 kts | 293° |
| 2026-05-06 20:02 | 50.67436 | 7.49898 | 6633 ft | 266 kts | 293° |
| 2026-05-06 20:03 | 50.68039 | 7.47547 | 6296 ft | 265 kts | 293° |
| 2026-05-06 20:03 | 50.68715 | 7.44908 | 6138 ft | 253 kts | 293° |
| 2026-05-06 20:03 | 50.69357 | 7.42394 | 5970 ft | 243 kts | 294° |
| 2026-05-06 20:03 | 50.70054 | 7.39996 | 5626 ft | 237 kts | 302° |
| 2026-05-06 20:04 | 50.71002 | 7.37941 | 5306 ft | 227 kts | 312° |
| 2026-05-06 20:04 | 50.72077 | 7.36176 | 4951 ft | 221 kts | 317° |
| 2026-05-06 20:04 | 50.73186 | 7.34532 | 4452 ft | 221 kts | 318° |
| 2026-05-06 20:04 | 50.74305 | 7.32897 | 3941 ft | 218 kts | 318° |
| 2026-05-06 20:05 | 50.75411 | 7.31286 | 3448 ft | 215 kts | 319° |
| 2026-05-06 20:05 | 50.76505 | 7.29693 | 2963 ft | 213 kts | 319° |
| 2026-05-06 20:05 | 50.77588 | 7.28117 | 2615 ft | 211 kts | 319° |
| 2026-05-06 20:05 | 50.78656 | 7.26562 | 2315 ft | 208 kts | 319° |
| 2026-05-06 20:06 | 50.79711 | 7.25028 | 2007 ft | 203 kts | 319° |
| 2026-05-06 20:06 | 50.80692 | 7.23599 | 1750 ft | 180 kts | 319° |
| 2026-05-06 20:06 | 50.81536 | 7.22371 | 1540 ft | 148 kts | 318° |
| 2026-05-06 20:06 | 50.82231 | 7.21360 | 1328 ft | 126 kts | 318° |
| 2026-05-06 20:07 | 50.82846 | 7.20467 | 1143 ft | 115 kts | 318° |
| 2026-05-06 20:07 | 50.83413 | 7.19643 | 982 ft | 114 kts | 318° |
| 2026-05-06 20:07 | 50.84002 | 7.18788 | 818 ft | 116 kts | 317° |
| 2026-05-06 20:07 | 50.84597 | 7.17913 | 664 ft | 116 kts | 317° |
| 2026-05-06 20:08 | 50.85192 | 7.17036 | 458 ft | 117 kts | 317° |
| 2026-05-06 20:08 | 50.85787 | 7.16191 | 319 ft | 112 kts | 319° |
| 2026-05-06 20:08 | 50.86300 | 7.15444 | 288 ft | 80 kts | 316° |
| 2026-05-06 20:08 | 50.86642 | 7.14943 | 273 ft | 55 kts | 317° |
| 2026-05-06 20:09 | 50.86817 | 7.14660 | 264 ft | 31 kts | 302° |
| 2026-05-06 20:09 | 50.86881 | 7.14379 | 259 ft | 20 kts | 278° |
| 2026-05-06 20:09 | 50.86900 | 7.14215 | 255 ft | 7 kts | 281° |
| 2026-05-06 20:09 | 50.86914 | 7.14109 | 255 ft | 12 kts | 289° |
| 2026-05-06 20:10 | 50.86967 | 7.14018 | 250 ft | 15 kts | 318° |
| 2026-05-06 20:10 | 50.87065 | 7.13870 | 243 ft | 24 kts | 315° |
| 2026-05-06 20:10 | 50.87183 | 7.13702 | 238 ft | 22 kts | 319° |
| 2026-05-06 20:10 | 50.87299 | 7.13531 | 236 ft | 25 kts | 317° |
| 2026-05-06 20:11 | 50.87438 | 7.13333 | 232 ft | 28 kts | 319° |
| 2026-05-06 20:11 | 50.87571 | 7.13140 | 232 ft | 21 kts | 317° |
| 2026-05-06 20:11 | 50.87672 | 7.12995 | 232 ft | 20 kts | 318° |
| 2026-05-06 20:11 | 50.87741 | 7.12895 | 234 ft | 0 kts | 316° |
| 2026-05-06 20:13 | 50.87752 | 7.12878 | 234 ft | 5 kts | 317° |
| 2026-05-06 20:13 | 50.87786 | 7.12823 | 232 ft | 9 kts | 306° |
| 2026-05-06 20:14 | 50.87785 | 7.12724 | 233 ft | 11 kts | 266° |
| 2026-05-06 20:14 | 50.87821 | 7.12632 | 232 ft | 9 kts | 331° |
| 2026-05-06 20:14 | 50.87882 | 7.12590 | 233 ft | 10 kts | 320° |
| 2026-05-06 20:14 | 50.87904 | 7.12509 | 234 ft | 4 kts | 291° |
| 2026-05-06 20:15 | 50.87908 | 7.12491 | 234 ft | 0 kts | 288° |